createdAt,value
2019-04-30T00:03:50.476Z,13.60
2019-04-30T00:13:58.873Z,13.40
2019-04-30T00:24:08.656Z,13.30
2019-04-30T00:34:10.054Z,13.20
2019-04-30T00:44:15.405Z,12.90
2019-04-30T00:54:22.525Z,12.70
2019-04-30T01:04:32.684Z,12.50
2019-04-30T01:14:38.635Z,12.40
2019-04-30T01:24:44.330Z,12.20
2019-04-30T01:34:53.872Z,12.10
2019-04-30T01:44:56.683Z,12.00
2019-04-30T01:55:01.961Z,11.90
2019-04-30T02:05:08.938Z,11.90
2019-04-30T02:15:14.255Z,12.10
2019-04-30T02:25:19.655Z,11.90
2019-04-30T02:35:47.112Z,11.70
2019-04-30T02:45:55.817Z,11.60
2019-04-30T02:56:02.639Z,11.60
2019-04-30T03:06:07.936Z,11.60
2019-04-30T03:16:14.862Z,11.50
2019-04-30T03:26:20.218Z,11.40
2019-04-30T03:36:26.734Z,11.60
2019-04-30T03:46:32.037Z,12.40
2019-04-30T03:56:39.673Z,13.50
2019-04-30T04:06:49.249Z,14.90
2019-04-30T04:16:54.299Z,16.30
2019-04-30T04:26:59.811Z,18.10
2019-04-30T04:37:05.958Z,19.70
2019-04-30T04:47:12.040Z,21.10
2019-04-30T04:57:19.244Z,21.00
2019-04-30T05:07:24.331Z,21.50
2019-04-30T05:17:32.103Z,22.50
2019-04-30T05:27:36.907Z,23.90
2019-04-30T05:37:42.279Z,25.20
2019-04-30T05:47:50.176Z,26.20
2019-04-30T05:57:56.537Z,25.10
2019-04-30T06:08:01.782Z,26.80
2019-04-30T06:18:13.499Z,27.50
2019-04-30T06:28:14.337Z,26.60
2019-04-30T06:38:19.614Z,27.30
2019-04-30T06:48:26.102Z,25.00
2019-04-30T06:58:31.490Z,25.00
2019-04-30T07:08:55.839Z,23.60
2019-04-30T07:19:01.534Z,23.30
2019-04-30T07:29:06.984Z,22.20
2019-04-30T07:39:12.388Z,22.60
2019-04-30T07:49:20.427Z,22.90
2019-04-30T07:59:24.873Z,22.50
2019-04-30T08:09:39.166Z,21.80
2019-04-30T08:19:38.797Z,21.10
2019-04-30T08:29:44.798Z,21.40
2019-04-30T08:39:50.312Z,20.70
2019-04-30T08:49:55.844Z,20.20
2019-04-30T09:00:01.533Z,19.90
2019-04-30T09:10:09.606Z,19.80
2019-04-30T09:20:15.043Z,20.10
2019-04-30T09:30:20.389Z,19.90
2019-04-30T09:40:25.983Z,19.30
2019-04-30T09:50:31.900Z,19.20
2019-04-30T10:00:39.303Z,19.20
2019-04-30T10:10:58.781Z,19.00
2019-04-30T10:21:04.237Z,19.50
2019-04-30T10:31:09.777Z,19.70
2019-04-30T10:41:16.058Z,19.50
2019-04-30T10:51:21.382Z,19.40
2019-04-30T11:01:29.063Z,18.70
2019-04-30T11:11:34.291Z,19.20
2019-04-30T11:21:39.601Z,20.00
2019-04-30T11:31:54.286Z,20.00
2019-04-30T11:42:00.838Z,19.70
2019-04-30T11:52:06.721Z,19.20
2019-04-30T12:02:39.310Z,19.60
2019-04-30T12:12:44.733Z,19.80
2019-04-30T12:22:50.124Z,20.00
2019-04-30T12:32:56.854Z,20.20
2019-04-30T12:43:02.179Z,19.70
2019-04-30T12:53:11.078Z,19.60
2019-04-30T13:03:16.575Z,19.40
2019-04-30T13:13:22.221Z,20.30
2019-04-30T13:23:29.657Z,19.90
2019-04-30T13:33:43.167Z,19.50
2019-04-30T13:44:10.538Z,20.30
2019-04-30T13:54:16.823Z,20.00
2019-04-30T14:04:39.776Z,19.40
2019-04-30T14:14:45.071Z,19.80
2019-04-30T14:24:50.447Z,20.20
2019-04-30T14:34:58.817Z,19.70
2019-04-30T14:45:17.507Z,20.30
2019-04-30T14:55:42.106Z,20.90
2019-04-30T15:05:51.350Z,20.20
2019-04-30T15:15:54.646Z,19.30
2019-04-30T15:26:00.309Z,19.30
2019-04-30T15:36:06.422Z,19.80
2019-04-30T15:46:11.814Z,20.00
2019-04-30T15:56:19.173Z,19.40
2019-04-30T16:06:24.286Z,19.10
2019-04-30T16:16:33.688Z,19.20
2019-04-30T16:26:49.323Z,19.30
2019-04-30T16:36:46.608Z,19.10
2019-04-30T16:46:52.066Z,18.90
2019-04-30T16:57:05.954Z,18.70
2019-04-30T17:07:18.651Z,17.90
2019-04-30T17:17:23.630Z,18.50
2019-04-30T17:27:29.417Z,18.40
2019-04-30T17:37:34.830Z,18.30
2019-04-30T17:47:40.279Z,18.00
2019-04-30T17:57:45.831Z,17.70
2019-04-30T18:07:51.275Z,17.40
2019-04-30T18:18:08.549Z,17.20
2019-04-30T18:28:14.513Z,17.00
2019-04-30T18:38:20.005Z,16.80
2019-04-30T18:48:25.350Z,16.60
2019-04-30T18:58:39.217Z,16.40
2019-04-30T19:08:51.267Z,16.30
2019-04-30T19:19:06.321Z,16.10
2019-04-30T19:29:11.709Z,15.90
2019-04-30T19:39:19.958Z,15.80
2019-04-30T19:49:25.592Z,15.60
2019-04-30T19:59:31.122Z,15.60
2019-04-30T20:09:36.511Z,15.50
2019-04-30T20:19:41.945Z,15.50
2019-04-30T20:29:51.524Z,15.30
2019-04-30T20:40:11.029Z,15.20
2019-04-30T20:50:16.636Z,15.20
2019-04-30T21:00:22.088Z,15.00
2019-04-30T21:10:29.249Z,14.90
2019-04-30T21:20:34.442Z,14.90
2019-04-30T21:30:40.077Z,14.70
2019-04-30T21:40:45.590Z,14.50
2019-04-30T21:50:50.904Z,14.50
2019-04-30T22:01:23.859Z,14.40
2019-04-30T22:11:30.270Z,14.30
2019-04-30T22:21:35.631Z,14.20
2019-04-30T22:31:40.969Z,14.00
2019-04-30T22:41:46.727Z,14.00
2019-04-30T22:51:53.053Z,14.00
2019-04-30T23:02:08.382Z,13.70
2019-04-30T23:12:13.776Z,13.40
2019-04-30T23:22:19.146Z,13.20
2019-04-30T23:32:24.330Z,13.00
2019-04-30T23:42:29.605Z,12.70
2019-04-30T23:52:34.847Z,12.40
